Atlanta, KS

10:21 AM CST on January 29, 2015 (GMT -0600)
Randy's Backyard | Change Station
CLOSE
Current Station
Personal Weather Station
Location: Winfield, KS
Elevation: 1138 ft
Nearby Weather Stations

Elev 1138 ft 37.24 °N, 97.00 °W | Updated 8 seconds ago

Overcast
Overcast
43.7 °F
Feels Like 42 °F
N
3.4
Wind Variable Wind from West
Gusts 4.9 mph

Today
High -- | Low -- °F
--% Chance of Precip.
Yesterday
High -- | Low -- °F
Precip. -- in
7:32 AM 5:47 PM
Waxing Gibbous, 75% visible
Pressure 30.43 in
Visibility 10.0 miles
Clouds Overcast 3100 ft
Windchill 42 °F
Dew Point 31 °F
Humidity 60%
Rainfall 0.00 in
Snow Depth Not available.
UV 1 out of 12
Pollen 2.10 out of 12
Air Quality Not available.
Flu Activity Not available.
METAR KWLD 291554Z AUTO 01017G26KT 10SM OVC031 06/M02 A3042 RMK AO2 PK WND 35030/1523 SLP303 T00611017

More Conditions Fewer Conditions

Pressure 30.43 in
Visibility 10.0 miles
Clouds Overcast 3100 ft
Windchill 42 °F
Dew Point 31 °F
Humidity 60%
Rainfall 0.00 in
Snow Depth Not available.
UV 1 out of 12
Pollen 2.10 out of 12
Air Quality Not available.
Flu Activity Not available.
METAR KWLD 291554Z AUTO 01017G26KT 10SM OVC031 06/M02 A3042 RMK AO2 PK WND 35030/1523 SLP303 T00611017

More Conditions Fewer Conditions

10-Day Weather Forecast

Almanac

Astronomy

Jan. 29, 2015 Rise Set
Actual Time
Civil Twilight
Nautical Twilight
Astronomical Twilight
Moon
Length of Visible Light
Length of Day
Tomorrow will be .
, % of the Moon is Illuminated

Today's Extremes

State Highs State Lows

Community

WunderPhotos

Upload Photos

1,791,466 photos uploaded!

WunderBlogs® & News

Nearby

Air Quality

  Air Quality AQ Index Pollutant
Not available.

Snow Depth

Station Depth Elevation

Earthquake Activity

City Distance Mag. Time & Date
Minimum magnitude displayed is 2.5.

Coastal Water Temperatures

Place Temperature

Nearby Weather Stations